createdAt,value
2023-01-29T00:01:45.954Z,99236.50
2023-01-29T00:06:47.997Z,99232.16
2023-01-29T00:11:49.739Z,99233.06
2023-01-29T00:16:51.447Z,99234.75
2023-01-29T00:21:53.127Z,99240.00
2023-01-29T00:26:54.760Z,99238.25
2023-01-29T00:31:56.523Z,99240.00
2023-01-29T00:37:04.891Z,99240.88
2023-01-29T00:42:25.204Z,99227.81
2023-01-29T00:47:36.566Z,99235.66
2023-01-29T00:52:38.794Z,99241.72
2023-01-29T00:57:40.447Z,99245.22
2023-01-29T01:03:00.796Z,99251.31
2023-01-29T01:08:02.496Z,99261.75
2023-01-29T01:13:06.382Z,99250.44
2023-01-29T01:18:08.061Z,99246.97
2023-01-29T01:23:09.710Z,99245.25
2023-01-29T01:28:11.391Z,99253.94
2023-01-29T01:33:13.318Z,99246.97
2023-01-29T01:38:14.951Z,99251.31
2023-01-29T01:43:16.596Z,99246.09
2023-01-29T01:48:24.217Z,99246.97
2023-01-29T01:54:07.062Z,99245.25
2023-01-29T01:59:12.111Z,99255.69
2023-01-29T02:04:40.407Z,99263.47
2023-01-29T02:09:46.957Z,99283.50
2023-01-29T02:14:48.710Z,99279.16
2023-01-29T02:20:14.621Z,99280.03
2023-01-29T02:25:41.154Z,99287.84
2023-01-29T02:30:58.396Z,99287.00
2023-01-29T02:36:15.171Z,99286.97
2023-01-29T02:41:40.564Z,99284.34
2023-01-29T02:46:48.203Z,99289.56
2023-01-29T02:52:15.118Z,99300.00
2023-01-29T02:57:48.719Z,99295.69
2023-01-29T03:03:12.882Z,99299.19
2023-01-29T03:08:20.541Z,99297.44
2023-01-29T03:13:32.245Z,99299.16
2023-01-29T03:18:43.804Z,99305.25
2023-01-29T03:24:03.973Z,99305.25
2023-01-29T03:29:27.789Z,99302.66
2023-01-29T03:34:35.287Z,99297.44
2023-01-29T03:39:37.112Z,99309.59
2023-01-29T03:44:49.033Z,99312.22
2023-01-29T03:50:00.945Z,99309.63
2023-01-29T03:55:15.584Z,99317.44
2023-01-29T04:00:27.972Z,99317.41
2023-01-29T04:05:34.586Z,99304.38
2023-01-29T04:10:39.005Z,99306.13
2023-01-29T04:15:48.244Z,99310.47
2023-01-29T04:20:50.253Z,99308.72
2023-01-29T04:26:14.446Z,99313.09
2023-01-29T04:31:17.019Z,99306.13
2023-01-29T04:36:41.653Z,99307.00
2023-01-29T04:41:54.400Z,99304.41
2023-01-29T04:47:08.279Z,99309.59
2023-01-29T04:52:19.805Z,99304.41
2023-01-29T04:57:32.097Z,99308.75
2023-01-29T05:02:36.353Z,99313.09
2023-01-29T05:07:39.516Z,99315.66
2023-01-29T05:12:45.921Z,99317.41
2023-01-29T05:17:47.846Z,99316.59
2023-01-29T05:22:49.630Z,99318.31
2023-01-29T05:28:05.489Z,99320.06
2023-01-29T05:33:16.896Z,99315.69
2023-01-29T05:38:20.187Z,99317.44
2023-01-29T05:43:25.418Z,99322.63
2023-01-29T05:48:29.174Z,99323.53
2023-01-29T05:53:31.742Z,99318.31
2023-01-29T05:58:34.251Z,99322.66
2023-01-29T06:03:35.887Z,99313.97
2023-01-29T06:08:37.606Z,99315.72
2023-01-29T06:13:39.643Z,99324.44
2023-01-29T06:18:41.939Z,99324.41
2023-01-29T06:23:43.568Z,99323.53
2023-01-29T06:28:48.415Z,99335.72
2023-01-29T06:33:50.073Z,99329.66
2023-01-29T06:38:51.709Z,99346.16
2023-01-29T06:43:53.444Z,99353.13
2023-01-29T06:48:58.832Z,99351.38
2023-01-29T06:54:00.563Z,99355.72
2023-01-29T06:59:02.752Z,99358.31
2023-01-29T07:04:04.604Z,99367.88
2023-01-29T07:09:06.357Z,99363.53
2023-01-29T07:14:08.227Z,99371.38
2023-01-29T07:19:09.931Z,99367.88
2023-01-29T07:24:11.725Z,99374.81
2023-01-29T07:29:13.438Z,99363.56
2023-01-29T07:34:15.097Z,99360.94
2023-01-29T07:39:16.782Z,99357.44
2023-01-29T07:44:18.485Z,99340.06
2023-01-29T07:49:20.279Z,99327.91
2023-01-29T07:54:21.947Z,99326.16
2023-01-29T07:59:23.684Z,99329.63
2023-01-29T08:04:25.558Z,99315.72
2023-01-29T08:09:27.208Z,99318.34
2023-01-29T08:14:28.863Z,99320.03
2023-01-29T08:19:30.605Z,99318.28
2023-01-29T08:24:47.444Z,99306.97
2023-01-29T08:29:54.510Z,99316.53
2023-01-29T08:34:56.178Z,99306.97
2023-01-29T08:39:57.976Z,99311.28
2023-01-29T08:44:59.728Z,99330.41
2023-01-29T08:50:01.376Z,99326.00
2023-01-29T08:55:03.173Z,99327.78
2023-01-29T09:00:07.517Z,99332.97
2023-01-29T09:05:10.300Z,99323.34
2023-01-29T09:10:12.516Z,99328.56
2023-01-29T09:15:14.286Z,99344.16
2023-01-29T09:20:16.397Z,99342.41
2023-01-29T09:25:18.616Z,99356.22
2023-01-29T09:30:20.661Z,99354.47
2023-01-29T09:35:23.825Z,99362.34
2023-01-29T09:40:34.695Z,99362.38
2023-01-29T09:45:37.190Z,99368.47
2023-01-29T09:50:43.725Z,99370.19
2023-01-29T09:56:02.811Z,99382.41
2023-01-29T10:01:19.442Z,99379.81
2023-01-29T10:06:47.966Z,99375.47
2023-01-29T10:12:08.207Z,99370.22
2023-01-29T10:17:35.058Z,99364.97
2023-01-29T10:22:53.796Z,99367.56
2023-01-29T10:27:58.830Z,99363.25
2023-01-29T10:33:06.129Z,99363.25
2023-01-29T10:38:33.851Z,99356.31
2023-01-29T10:43:44.887Z,99347.53
2023-01-29T10:49:00.535Z,99337.97
2023-01-29T10:54:20.457Z,99335.34
2023-01-29T10:59:31.111Z,99323.16
2023-01-29T11:04:35.415Z,99329.25
2023-01-29T11:09:47.961Z,99331.03
2023-01-29T11:15:07.099Z,99337.09
2023-01-29T11:20:27.245Z,99331.84
2023-01-29T11:25:32.780Z,99317.91
2023-01-29T11:30:43.429Z,99319.66
2023-01-29T11:35:45.687Z,99308.28
2023-01-29T11:40:47.962Z,99308.25
2023-01-29T11:45:53.704Z,99301.22
2023-01-29T11:51:00.684Z,99281.25
2023-01-29T11:56:07.332Z,99259.47
2023-01-29T12:01:10.012Z,99260.31
2023-01-29T12:06:22.859Z,99264.69
2023-01-29T12:11:35.633Z,99258.53
2023-01-29T12:17:03.567Z,99243.75
2023-01-29T12:22:25.118Z,99229.63
2023-01-29T12:27:59.432Z,99237.63
2023-01-29T12:33:15.108Z,99242.13
2023-01-29T12:38:23.023Z,99249.91
2023-01-29T12:43:48.272Z,99253.31
2023-01-29T12:48:51.313Z,99246.38
2023-01-29T12:53:59.899Z,99229.84
2023-01-29T12:59:10.123Z,99219.41
2023-01-29T13:04:30.937Z,99231.59
2023-01-29T13:09:35.454Z,99219.38
2023-01-29T13:14:53.247Z,99210.66
2023-01-29T13:20:00.806Z,99203.66
2023-01-29T13:25:05.680Z,99206.34
2023-01-29T13:30:08.929Z,99195.03
2023-01-29T13:35:16.003Z,99187.16
2023-01-29T13:40:25.943Z,99182.88
2023-01-29T13:45:33.510Z,99186.28
2023-01-29T13:50:41.508Z,99182.00
2023-01-29T13:55:44.103Z,99172.50
2023-01-29T14:00:48.765Z,99183.78
2023-01-29T14:06:03.840Z,99192.47
2023-01-29T14:11:21.155Z,99183.78
2023-01-29T14:16:22.971Z,99178.53
2023-01-29T14:21:38.204Z,99168.03
2023-01-29T14:26:44.040Z,99173.28
2023-01-29T14:31:56.318Z,99163.72
2023-01-29T14:37:03.319Z,99165.50
2023-01-29T14:42:36.604Z,99176.84
2023-01-29T14:47:38.433Z,99170.78
2023-01-29T14:52:43.477Z,99170.75
2023-01-29T14:57:46.522Z,99160.31
2023-01-29T15:03:01.427Z,99171.63
2023-01-29T15:08:10.063Z,99175.09
2023-01-29T15:13:15.664Z,99174.19
2023-01-29T15:18:42.475Z,99171.63
2023-01-29T15:23:45.188Z,99158.56
2023-01-29T15:29:03.571Z,99156.00
2023-01-29T15:34:07.787Z,99159.44
2023-01-29T15:39:09.560Z,99151.63
2023-01-29T15:44:17.515Z,99149.88
2023-01-29T15:49:29.559Z,99138.56
2023-01-29T15:54:34.289Z,99135.13
2023-01-29T15:59:43.880Z,99124.66
2023-01-29T16:04:46.758Z,99118.63
2023-01-29T16:09:50.093Z,99126.44
2023-01-29T16:14:56.712Z,99124.72
2023-01-29T16:20:00.549Z,99124.66
2023-01-29T16:25:20.370Z,99122.97
2023-01-29T16:30:28.806Z,99135.16
2023-01-29T16:35:33.835Z,99143.84
2023-01-29T16:40:38.374Z,99149.06
2023-01-29T16:45:40.854Z,99155.16
2023-01-29T16:50:54.312Z,99159.53
2023-01-29T16:56:05.845Z,99168.22
2023-01-29T17:01:11.682Z,99174.34
2023-01-29T17:06:21.836Z,99176.97
2023-01-29T17:11:40.305Z,99163.91
2023-01-29T17:17:02.172Z,99170.03
2023-01-29T17:22:07.848Z,99181.31
2023-01-29T17:27:22.092Z,99178.66
2023-01-29T17:32:43.949Z,99183.91
2023-01-29T17:37:49.623Z,99196.09
2023-01-29T17:42:52.109Z,99197.00
2023-01-29T17:47:54.343Z,99203.13
2023-01-29T17:52:56.925Z,99209.22
2023-01-29T17:57:59.103Z,99199.63
2023-01-29T18:03:02.624Z,99210.06
2023-01-29T18:08:05.404Z,99206.66
2023-01-29T18:13:07.916Z,99205.75
2023-01-29T18:18:23.094Z,99188.31
2023-01-29T18:23:26.053Z,99174.41
2023-01-29T18:28:28.513Z,99183.09
2023-01-29T18:33:31.640Z,99177.00
2023-01-29T18:38:34.135Z,99177.88
2023-01-29T18:43:37.944Z,99182.25
2023-01-29T18:48:43.850Z,99178.78
2023-01-29T18:53:52.267Z,99188.34
2023-01-29T18:58:57.777Z,99200.53
2023-01-29T19:04:03.917Z,99199.66
2023-01-29T19:09:06.209Z,99200.56
2023-01-29T19:14:09.445Z,99202.28
2023-01-29T19:19:12.210Z,99197.06
2023-01-29T19:24:14.931Z,99181.41
2023-01-29T19:29:17.892Z,99176.22
2023-01-29T19:34:20.524Z,99183.16
2023-01-29T19:39:23.077Z,99181.47
2023-01-29T19:44:26.126Z,99178.84
2023-01-29T19:49:31.480Z,99173.69
2023-01-29T19:54:34.134Z,99170.13
2023-01-29T19:59:36.706Z,99164.97
2023-01-29T20:04:40.394Z,99169.44
2023-01-29T20:09:43.133Z,99158.84
2023-01-29T20:14:49.529Z,99163.25
2023-01-29T20:19:51.970Z,99159.69
2023-01-29T20:24:56.848Z,99152.75
2023-01-29T20:30:00.758Z,99145.78
2023-01-29T20:35:03.876Z,99145.78
2023-01-29T20:40:06.993Z,99131.88
2023-01-29T20:45:11.518Z,99131.88
2023-01-29T20:50:16.347Z,99121.44
2023-01-29T20:55:19.250Z,99118.81
2023-01-29T21:00:22.826Z,99113.59
2023-01-29T21:05:25.750Z,99104.06
2023-01-29T21:10:28.426Z,99106.63
2023-01-29T21:15:31.705Z,99105.81
2023-01-29T21:20:35.359Z,99102.31
2023-01-29T21:25:38.887Z,99093.66
2023-01-29T21:30:40.769Z,99101.41
2023-01-29T21:35:42.575Z,99091.00
2023-01-29T21:40:44.585Z,99083.19
2023-01-29T21:45:47.739Z,99079.75
2023-01-29T21:50:49.542Z,99072.78
2023-01-29T21:55:51.982Z,99071.84
2023-01-29T22:00:53.677Z,99061.44
2023-01-29T22:05:55.517Z,99065.81
2023-01-29T22:10:57.237Z,99054.53
2023-01-29T22:15:59.001Z,99058.78
2023-01-29T22:21:02.971Z,99060.53
2023-01-29T22:26:06.754Z,99037.94
2023-01-29T22:31:08.430Z,99023.19
2023-01-29T22:36:10.375Z,99016.19
2023-01-29T22:41:12.132Z,98999.69
2023-01-29T22:46:14.127Z,99001.47
2023-01-29T22:51:15.944Z,98986.66
2023-01-29T22:56:18.907Z,98973.66
2023-01-29T23:01:22.758Z,98976.28
2023-01-29T23:06:24.670Z,98964.13
2023-01-29T23:11:26.317Z,98967.72
2023-01-29T23:16:28.703Z,98958.25
2023-01-29T23:21:30.588Z,98950.38
2023-01-29T23:26:50.703Z,98945.16
2023-01-29T23:31:52.431Z,98941.69
2023-01-29T23:36:54.504Z,98930.41
2023-01-29T23:41:56.238Z,98919.16
2023-01-29T23:46:58.018Z,98916.56
2023-01-29T23:51:59.741Z,98916.63
2023-01-29T23:57:01.438Z,98893.22
